KFLO/FLO METAR and TAF weather

Enter ICAO airport designator
Station Type Date Time Source
KFLO METAR 2022/06/30 13:53 UTC NOAA

KFLO 301353Z 09004KT 10SM BKN008 27/23 A3024 RMK AO2 CIG 007V011 SLP238 T02720228


Station Type Date Time Source
KFLO Decoded METAR 2022/06/30 13:53 UTC NOAA

FLORENCE REGIONAL AIRPORT, SC, United States (KFLO) 34-11N 079-44W 44M
Jun 30, 2022 - 09:53 AM EDT / 2022.06.30 1353 UTC
Wind: from the E (090 degrees) at 5 MPH (4 KT):0
Visibility: 10 mile(s):0
Sky conditions: mostly cloudy
Temperature: 81.0 F (27.2 C)
Dew Point: 73.0 F (22.8 C)
Relative Humidity: 76%
Pressure (altimeter): 30.24 in. Hg (1024 hPa)
ob: KFLO 301353Z 09004KT 10SM BKN008 27/23 A3024 RMK AO2 CIG 007V011 SLP238 T02720228
cycle: 14

Station Type Date Time Source
KFLO TAF 2022/06/30 13:24 UTC NOAA

TAF
AMD KFLO 301322Z 3013/0112 04002KT 6SM BR OVC004
FM301400 10006KT P6SM BKN008 BKN250
FM301900 13008KT P6SM VCTS SCT035CB BKN045
FM010100 15004KT P6SM BKN120 OVC250
FM010700 00000KT 2SM BR SCT003

Example: see airport list